sensor_id;sensor_type;location;lat;lon;timestamp;P1;durP1;ratioP1;P2;durP2;ratioP2
7985;SDS011;4038;42.612;23.066;2023-08-24T00:01:30;32.80;;;30.23;;
7985;SDS011;4038;42.612;23.066;2023-08-24T00:03:56;31.38;;;29.30;;
7985;SDS011;4038;42.612;23.066;2023-08-24T00:06:21;32.35;;;30.15;;
7985;SDS011;4038;42.612;23.066;2023-08-24T00:08:47;31.77;;;29.67;;
7985;SDS011;4038;42.612;23.066;2023-08-24T00:11:12;32.95;;;30.50;;
7985;SDS011;4038;42.612;23.066;2023-08-24T00:13:40;31.90;;;29.67;;
7985;SDS011;4038;42.612;23.066;2023-08-24T00:16:07;32.75;;;30.55;;
7985;SDS011;4038;42.612;23.066;2023-08-24T00:18:32;32.83;;;30.42;;
7985;SDS011;4038;42.612;23.066;2023-08-24T00:20:58;32.65;;;30.23;;
7985;SDS011;4038;42.612;23.066;2023-08-24T00:23:24;36.92;;;34.22;;
7985;SDS011;4038;42.612;23.066;2023-08-24T00:25:51;32.58;;;30.23;;
7985;SDS011;4038;42.612;23.066;2023-08-24T00:28:16;31.80;;;29.60;;
7985;SDS011;4038;42.612;23.066;2023-08-24T00:30:42;32.17;;;29.95;;
7985;SDS011;4038;42.612;23.066;2023-08-24T00:33:07;32.45;;;30.33;;
7985;SDS011;4038;42.612;23.066;2023-08-24T00:35:33;32.00;;;29.88;;
7985;SDS011;4038;42.612;23.066;2023-08-24T00:37:58;31.38;;;29.15;;
7985;SDS011;4038;42.612;23.066;2023-08-24T00:40:23;31.83;;;29.42;;
7985;SDS011;4038;42.612;23.066;2023-08-24T00:42:50;31.42;;;28.90;;
7985;SDS011;4038;42.612;23.066;2023-08-24T00:45:15;32.05;;;29.77;;
7985;SDS011;4038;42.612;23.066;2023-08-24T00:47:42;31.40;;;29.20;;
7985;SDS011;4038;42.612;23.066;2023-08-24T00:50:10;31.15;;;29.05;;
7985;SDS011;4038;42.612;23.066;2023-08-24T00:52:36;31.80;;;29.38;;
7985;SDS011;4038;42.612;23.066;2023-08-24T00:55:04;32.28;;;30.08;;
7985;SDS011;4038;42.612;23.066;2023-08-24T00:57:30;31.88;;;29.67;;
7985;SDS011;4038;42.612;23.066;2023-08-24T00:59:56;31.70;;;29.50;;
7985;SDS011;4038;42.612;23.066;2023-08-24T01:02:24;31.65;;;29.45;;
7985;SDS011;4038;42.612;23.066;2023-08-24T01:04:50;33.00;;;30.60;;
7985;SDS011;4038;42.612;23.066;2023-08-24T01:07:16;32.40;;;29.48;;
7985;SDS011;4038;42.612;23.066;2023-08-24T01:09:42;33.70;;;30.92;;
7985;SDS011;4038;42.612;23.066;2023-08-24T01:17:09;33.03;;;30.70;;
7985;SDS011;4038;42.612;23.066;2023-08-24T01:19:39;32.25;;;29.88;;
7985;SDS011;4038;42.612;23.066;2023-08-24T01:22:08;32.65;;;30.25;;
7985;SDS011;4038;42.612;23.066;2023-08-24T01:25:40;32.53;;;30.23;;
7985;SDS011;4038;42.612;23.066;2023-08-24T01:27:46;32.38;;;29.98;;
7985;SDS011;4038;42.612;23.066;2023-08-24T01:30:12;32.35;;;30.05;;
7985;SDS011;4038;42.612;23.066;2023-08-24T01:32:39;33.65;;;31.13;;
7985;SDS011;4038;42.612;23.066;2023-08-24T01:35:06;34.90;;;32.33;;
7985;SDS011;4038;42.612;23.066;2023-08-24T01:37:33;35.00;;;32.08;;
7985;SDS011;4038;42.612;23.066;2023-08-24T01:40:33;36.60;;;34.00;;
7985;SDS011;4038;42.612;23.066;2023-08-24T01:42:57;33.65;;;31.08;;
7985;SDS011;4038;42.612;23.066;2023-08-24T01:45:28;34.40;;;31.90;;
7985;SDS011;4038;42.612;23.066;2023-08-24T01:47:56;32.42;;;29.92;;
7985;SDS011;4038;42.612;23.066;2023-08-24T01:50:24;32.35;;;29.67;;
7985;SDS011;4038;42.612;23.066;2023-08-24T01:52:50;31.80;;;29.48;;
7985;SDS011;4038;42.612;23.066;2023-08-24T01:55:19;33.42;;;31.05;;
7985;SDS011;4038;42.612;23.066;2023-08-24T01:57:45;33.00;;;30.65;;
7985;SDS011;4038;42.612;23.066;2023-08-24T02:00:10;33.08;;;30.40;;
7985;SDS011;4038;42.612;23.066;2023-08-24T02:02:36;32.65;;;30.13;;
7985;SDS011;4038;42.612;23.066;2023-08-24T02:05:02;31.40;;;29.20;;
7985;SDS011;4038;42.612;23.066;2023-08-24T02:07:28;34.00;;;31.40;;
7985;SDS011;4038;42.612;23.066;2023-08-24T02:09:54;32.03;;;29.73;;
7985;SDS011;4038;42.612;23.066;2023-08-24T02:12:19;32.70;;;30.50;;
7985;SDS011;4038;42.612;23.066;2023-08-24T02:14:44;32.33;;;30.08;;
7985;SDS011;4038;42.612;23.066;2023-08-24T02:17:10;32.00;;;29.60;;
7985;SDS011;4038;42.612;23.066;2023-08-24T02:19:35;32.05;;;29.85;;
7985;SDS011;4038;42.612;23.066;2023-08-24T02:22:01;32.25;;;30.05;;
7985;SDS011;4038;42.612;23.066;2023-08-24T02:24:26;33.17;;;30.77;;
7985;SDS011;4038;42.612;23.066;2023-08-24T02:26:51;32.60;;;30.30;;
7985;SDS011;4038;42.612;23.066;2023-08-24T02:29:17;33.65;;;31.20;;
7985;SDS011;4038;42.612;23.066;2023-08-24T02:31:42;32.47;;;30.02;;
7985;SDS011;4038;42.612;23.066;2023-08-24T02:34:08;32.97;;;30.58;;
7985;SDS011;4038;42.612;23.066;2023-08-24T02:36:33;33.28;;;30.80;;
7985;SDS011;4038;42.612;23.066;2023-08-24T02:38:59;33.63;;;31.25;;
7985;SDS011;4038;42.612;23.066;2023-08-24T02:41:25;33.47;;;30.95;;
7985;SDS011;4038;42.612;23.066;2023-08-24T02:43:51;34.03;;;31.40;;
7985;SDS011;4038;42.612;23.066;2023-08-24T02:46:16;34.05;;;31.02;;
7985;SDS011;4038;42.612;23.066;2023-08-24T02:48:43;33.40;;;31.00;;
7985;SDS011;4038;42.612;23.066;2023-08-24T02:51:09;33.70;;;31.10;;
7985;SDS011;4038;42.612;23.066;2023-08-24T02:53:36;33.10;;;30.73;;
7985;SDS011;4038;42.612;23.066;2023-08-24T02:56:01;31.92;;;29.67;;
7985;SDS011;4038;42.612;23.066;2023-08-24T02:58:27;32.40;;;29.95;;
7985;SDS011;4038;42.612;23.066;2023-08-24T03:00:54;32.22;;;29.73;;
7985;SDS011;4038;42.612;23.066;2023-08-24T03:03:20;33.08;;;30.40;;
7985;SDS011;4038;42.612;23.066;2023-08-24T03:05:58;32.47;;;30.08;;
7985;SDS011;4038;42.612;23.066;2023-08-24T03:08:25;32.10;;;29.80;;
7985;SDS011;4038;42.612;23.066;2023-08-24T03:10:51;32.08;;;29.83;;
7985;SDS011;4038;42.612;23.066;2023-08-24T03:13:17;32.17;;;29.85;;
7985;SDS011;4038;42.612;23.066;2023-08-24T03:15:42;33.85;;;31.35;;
7985;SDS011;4038;42.612;23.066;2023-08-24T03:18:10;33.33;;;30.88;;
7985;SDS011;4038;42.612;23.066;2023-08-24T03:20:36;32.95;;;30.65;;
7985;SDS011;4038;42.612;23.066;2023-08-24T03:23:02;32.63;;;30.33;;
7985;SDS011;4038;42.612;23.066;2023-08-24T03:25:28;33.85;;;31.27;;
7985;SDS011;4038;42.612;23.066;2023-08-24T03:27:53;33.67;;;31.13;;
7985;SDS011;4038;42.612;23.066;2023-08-24T03:30:20;33.05;;;30.65;;
7985;SDS011;4038;42.612;23.066;2023-08-24T03:32:46;33.17;;;30.88;;
7985;SDS011;4038;42.612;23.066;2023-08-24T03:35:11;33.60;;;31.02;;
7985;SDS011;4038;42.612;23.066;2023-08-24T03:37:36;35.15;;;32.47;;
7985;SDS011;4038;42.612;23.066;2023-08-24T03:40:02;35.05;;;32.13;;
7985;SDS011;4038;42.612;23.066;2023-08-24T03:42:29;34.10;;;31.60;;
7985;SDS011;4038;42.612;23.066;2023-08-24T03:44:54;34.38;;;31.63;;
7985;SDS011;4038;42.612;23.066;2023-08-24T03:47:19;33.58;;;31.05;;
7985;SDS011;4038;42.612;23.066;2023-08-24T03:49:45;35.03;;;31.98;;
7985;SDS011;4038;42.612;23.066;2023-08-24T03:52:10;34.00;;;31.35;;
7985;SDS011;4038;42.612;23.066;2023-08-24T03:54:36;35.58;;;32.60;;
7985;SDS011;4038;42.612;23.066;2023-08-24T03:57:02;36.88;;;33.90;;
7985;SDS011;4038;42.612;23.066;2023-08-24T03:59:27;34.13;;;31.63;;
7985;SDS011;4038;42.612;23.066;2023-08-24T04:01:53;34.17;;;31.55;;
7985;SDS011;4038;42.612;23.066;2023-08-24T04:04:18;34.58;;;31.88;;
7985;SDS011;4038;42.612;23.066;2023-08-24T04:06:43;35.65;;;32.38;;
7985;SDS011;4038;42.612;23.066;2023-08-24T04:09:09;34.33;;;31.58;;
7985;SDS011;4038;42.612;23.066;2023-08-24T04:11:34;35.75;;;32.58;;
7985;SDS011;4038;42.612;23.066;2023-08-24T04:14:00;37.20;;;34.20;;
7985;SDS011;4038;42.612;23.066;2023-08-24T04:16:26;35.35;;;32.42;;
7985;SDS011;4038;42.612;23.066;2023-08-24T04:18:51;34.55;;;31.95;;
7985;SDS011;4038;42.612;23.066;2023-08-24T04:21:17;34.97;;;32.28;;
7985;SDS011;4038;42.612;23.066;2023-08-24T04:23:42;35.88;;;32.65;;
7985;SDS011;4038;42.612;23.066;2023-08-24T04:26:10;34.55;;;32.05;;
7985;SDS011;4038;42.612;23.066;2023-08-24T04:28:36;34.30;;;31.50;;
7985;SDS011;4038;42.612;23.066;2023-08-24T04:31:02;36.88;;;34.15;;
7985;SDS011;4038;42.612;23.066;2023-08-24T04:33:28;35.35;;;32.53;;
7985;SDS011;4038;42.612;23.066;2023-08-24T04:35:53;34.88;;;32.30;;
7985;SDS011;4038;42.612;23.066;2023-08-24T04:38:19;34.20;;;31.50;;
7985;SDS011;4038;42.612;23.066;2023-08-24T04:40:51;35.55;;;32.58;;
7985;SDS011;4038;42.612;23.066;2023-08-24T04:43:18;36.17;;;33.17;;
7985;SDS011;4038;42.612;23.066;2023-08-24T04:45:46;35.42;;;32.63;;
7985;SDS011;4038;42.612;23.066;2023-08-24T04:48:13;35.88;;;33.00;;
7985;SDS011;4038;42.612;23.066;2023-08-24T04:50:39;36.00;;;33.20;;
7985;SDS011;4038;42.612;23.066;2023-08-24T04:53:04;35.33;;;32.42;;
7985;SDS011;4038;42.612;23.066;2023-08-24T04:55:30;33.80;;;31.02;;
7985;SDS011;4038;42.612;23.066;2023-08-24T04:57:55;35.22;;;32.25;;
7985;SDS011;4038;42.612;23.066;2023-08-24T05:00:20;36.55;;;33.70;;
7985;SDS011;4038;42.612;23.066;2023-08-24T05:02:46;34.28;;;31.50;;
7985;SDS011;4038;42.612;23.066;2023-08-24T05:05:11;37.00;;;33.85;;
7985;SDS011;4038;42.612;23.066;2023-08-24T05:07:39;35.67;;;32.88;;
7985;SDS011;4038;42.612;23.066;2023-08-24T05:10:06;34.50;;;31.33;;
7985;SDS011;4038;42.612;23.066;2023-08-24T05:12:32;33.63;;;30.92;;
7985;SDS011;4038;42.612;23.066;2023-08-24T05:15:00;34.72;;;31.90;;
7985;SDS011;4038;42.612;23.066;2023-08-24T05:17:29;34.20;;;31.70;;
7985;SDS011;4038;42.612;23.066;2023-08-24T05:19:56;34.50;;;31.90;;
7985;SDS011;4038;42.612;23.066;2023-08-24T05:22:22;35.78;;;32.97;;
7985;SDS011;4038;42.612;23.066;2023-08-24T05:24:47;40.00;;;36.47;;
7985;SDS011;4038;42.612;23.066;2023-08-24T05:27:13;35.83;;;32.58;;
7985;SDS011;4038;42.612;23.066;2023-08-24T05:29:38;34.53;;;31.92;;
7985;SDS011;4038;42.612;23.066;2023-08-24T05:32:03;33.90;;;30.98;;
7985;SDS011;4038;42.612;23.066;2023-08-24T05:34:29;34.22;;;31.45;;
7985;SDS011;4038;42.612;23.066;2023-08-24T05:36:54;33.88;;;31.05;;
7985;SDS011;4038;42.612;23.066;2023-08-24T05:39:20;34.42;;;31.65;;
7985;SDS011;4038;42.612;23.066;2023-08-24T05:41:45;35.42;;;32.38;;
7985;SDS011;4038;42.612;23.066;2023-08-24T05:44:11;35.42;;;32.20;;
7985;SDS011;4038;42.612;23.066;2023-08-24T05:46:36;35.20;;;31.85;;
7985;SDS011;4038;42.612;23.066;2023-08-24T05:49:01;36.08;;;32.60;;
7985;SDS011;4038;42.612;23.066;2023-08-24T05:51:27;34.22;;;31.42;;
7985;SDS011;4038;42.612;23.066;2023-08-24T05:53:53;33.58;;;31.08;;
7985;SDS011;4038;42.612;23.066;2023-08-24T05:56:23;34.75;;;31.85;;
7985;SDS011;4038;42.612;23.066;2023-08-24T05:58:49;33.42;;;30.63;;
7985;SDS011;4038;42.612;23.066;2023-08-24T06:01:15;34.25;;;31.15;;
7985;SDS011;4038;42.612;23.066;2023-08-24T06:03:40;33.10;;;30.60;;
7985;SDS011;4038;42.612;23.066;2023-08-24T06:06:06;32.25;;;29.73;;
7985;SDS011;4038;42.612;23.066;2023-08-24T06:08:34;33.22;;;30.45;;
7985;SDS011;4038;42.612;23.066;2023-08-24T06:10:59;34.90;;;31.73;;
7985;SDS011;4038;42.612;23.066;2023-08-24T06:13:25;33.97;;;30.75;;
7985;SDS011;4038;42.612;23.066;2023-08-24T06:15:51;33.72;;;30.63;;
7985;SDS011;4038;42.612;23.066;2023-08-24T06:18:16;34.47;;;31.42;;
7985;SDS011;4038;42.612;23.066;2023-08-24T06:20:42;35.72;;;32.78;;
7985;SDS011;4038;42.612;23.066;2023-08-24T06:23:07;58.40;;;52.65;;
7985;SDS011;4038;42.612;23.066;2023-08-24T06:25:33;37.20;;;33.75;;
7985;SDS011;4038;42.612;23.066;2023-08-24T06:28:00;36.13;;;32.83;;
7985;SDS011;4038;42.612;23.066;2023-08-24T06:30:28;36.25;;;32.58;;
7985;SDS011;4038;42.612;23.066;2023-08-24T06:32:54;36.97;;;33.38;;
7985;SDS011;4038;42.612;23.066;2023-08-24T06:35:19;36.80;;;33.20;;
7985;SDS011;4038;42.612;23.066;2023-08-24T06:37:44;41.65;;;34.53;;
7985;SDS011;4038;42.612;23.066;2023-08-24T06:40:10;41.72;;;35.83;;
7985;SDS011;4038;42.612;23.066;2023-08-24T06:42:36;61.15;;;35.40;;
7985;SDS011;4038;42.612;23.066;2023-08-24T06:45:01;53.67;;;37.95;;
7985;SDS011;4038;42.612;23.066;2023-08-24T06:47:27;47.33;;;36.85;;
7985;SDS011;4038;42.612;23.066;2023-08-24T06:49:52;49.08;;;34.83;;
7985;SDS011;4038;42.612;23.066;2023-08-24T06:52:18;48.42;;;35.17;;
7985;SDS011;4038;42.612;23.066;2023-08-24T06:54:44;60.60;;;36.10;;
7985;SDS011;4038;42.612;23.066;2023-08-24T06:57:09;54.78;;;34.97;;
7985;SDS011;4038;42.612;23.066;2023-08-24T06:59:35;57.17;;;33.92;;
7985;SDS011;4038;42.612;23.066;2023-08-24T07:02:00;55.67;;;34.63;;
7985;SDS011;4038;42.612;23.066;2023-08-24T07:04:26;42.65;;;32.72;;
7985;SDS011;4038;42.612;23.066;2023-08-24T07:06:52;35.72;;;32.05;;
7985;SDS011;4038;42.612;23.066;2023-08-24T07:09:18;36.13;;;31.85;;
7985;SDS011;4038;42.612;23.066;2023-08-24T07:11:44;34.90;;;31.48;;
7985;SDS011;4038;42.612;23.066;2023-08-24T07:14:10;34.30;;;31.08;;
7985;SDS011;4038;42.612;23.066;2023-08-24T07:16:35;34.88;;;31.40;;
7985;SDS011;4038;42.612;23.066;2023-08-24T07:19:00;33.22;;;30.45;;
7985;SDS011;4038;42.612;23.066;2023-08-24T07:21:27;33.45;;;30.23;;
7985;SDS011;4038;42.612;23.066;2023-08-24T07:23:52;37.88;;;30.02;;
7985;SDS011;4038;42.612;23.066;2023-08-24T07:26:18;33.38;;;30.08;;
7985;SDS011;4038;42.612;23.066;2023-08-24T07:28:44;32.45;;;29.80;;
7985;SDS011;4038;42.612;23.066;2023-08-24T07:31:09;32.83;;;29.65;;
7985;SDS011;4038;42.612;23.066;2023-08-24T07:33:36;32.90;;;30.00;;
7985;SDS011;4038;42.612;23.066;2023-08-24T07:36:05;32.35;;;29.45;;
7985;SDS011;4038;42.612;23.066;2023-08-24T07:38:30;33.05;;;30.33;;
7985;SDS011;4038;42.612;23.066;2023-08-24T07:40:56;33.03;;;30.33;;
7985;SDS011;4038;42.612;23.066;2023-08-24T07:43:22;33.03;;;29.92;;
7985;SDS011;4038;42.612;23.066;2023-08-24T07:45:48;34.55;;;31.45;;
7985;SDS011;4038;42.612;23.066;2023-08-24T07:48:13;33.22;;;30.15;;
7985;SDS011;4038;42.612;23.066;2023-08-24T07:50:40;33.80;;;30.33;;
7985;SDS011;4038;42.612;23.066;2023-08-24T07:53:05;39.38;;;29.50;;
7985;SDS011;4038;42.612;23.066;2023-08-24T07:55:31;33.97;;;30.83;;
7985;SDS011;4038;42.612;23.066;2023-08-24T07:57:56;32.60;;;29.92;;
7985;SDS011;4038;42.612;23.066;2023-08-24T08:00:21;33.50;;;30.27;;
7985;SDS011;4038;42.612;23.066;2023-08-24T08:02:50;32.83;;;30.13;;
7985;SDS011;4038;42.612;23.066;2023-08-24T08:05:18;32.80;;;30.10;;
7985;SDS011;4038;42.612;23.066;2023-08-24T08:07:44;32.40;;;29.70;;
7985;SDS011;4038;42.612;23.066;2023-08-24T08:10:09;32.63;;;29.60;;
7985;SDS011;4038;42.612;23.066;2023-08-24T08:12:35;32.22;;;29.33;;
7985;SDS011;4038;42.612;23.066;2023-08-24T08:15:01;31.88;;;29.02;;
7985;SDS011;4038;42.612;23.066;2023-08-24T08:17:27;31.33;;;29.13;;
7985;SDS011;4038;42.612;23.066;2023-08-24T08:19:55;32.95;;;29.80;;
7985;SDS011;4038;42.612;23.066;2023-08-24T08:22:21;32.97;;;30.23;;
7985;SDS011;4038;42.612;23.066;2023-08-24T08:24:47;34.08;;;31.17;;
7985;SDS011;4038;42.612;23.066;2023-08-24T08:27:12;34.55;;;31.88;;
7985;SDS011;4038;42.612;23.066;2023-08-24T08:29:38;33.75;;;30.98;;
7985;SDS011;4038;42.612;23.066;2023-08-24T08:32:04;32.75;;;30.13;;
7985;SDS011;4038;42.612;23.066;2023-08-24T08:34:30;33.05;;;30.65;;
7985;SDS011;4038;42.612;23.066;2023-08-24T08:36:56;32.75;;;30.38;;
7985;SDS011;4038;42.612;23.066;2023-08-24T08:39:22;33.67;;;31.08;;
7985;SDS011;4038;42.612;23.066;2023-08-24T08:41:48;33.60;;;31.20;;
7985;SDS011;4038;42.612;23.066;2023-08-24T08:44:14;33.95;;;31.17;;
7985;SDS011;4038;42.612;23.066;2023-08-24T08:46:41;32.53;;;30.02;;
7985;SDS011;4038;42.612;23.066;2023-08-24T08:49:08;32.15;;;29.95;;
7985;SDS011;4038;42.612;23.066;2023-08-24T08:51:37;33.83;;;31.13;;
7985;SDS011;4038;42.612;23.066;2023-08-24T08:54:03;33.22;;;30.48;;
7985;SDS011;4038;42.612;23.066;2023-08-24T08:56:30;33.47;;;30.75;;
7985;SDS011;4038;42.612;23.066;2023-08-24T08:58:56;34.15;;;31.33;;
7985;SDS011;4038;42.612;23.066;2023-08-24T09:01:25;33.28;;;30.70;;
7985;SDS011;4038;42.612;23.066;2023-08-24T09:03:52;34.55;;;31.75;;
7985;SDS011;4038;42.612;23.066;2023-08-24T09:06:18;34.60;;;31.92;;
7985;SDS011;4038;42.612;23.066;2023-08-24T09:08:44;33.00;;;30.73;;
7985;SDS011;4038;42.612;23.066;2023-08-24T09:11:10;33.53;;;31.20;;
7985;SDS011;4038;42.612;23.066;2023-08-24T09:13:35;33.80;;;31.00;;
7985;SDS011;4038;42.612;23.066;2023-08-24T09:16:07;34.55;;;31.88;;
7985;SDS011;4038;42.612;23.066;2023-08-24T09:18:36;34.80;;;31.90;;
7985;SDS011;4038;42.612;23.066;2023-08-24T09:21:10;34.50;;;31.83;;
7985;SDS011;4038;42.612;23.066;2023-08-24T09:24:10;34.33;;;31.52;;
7985;SDS011;4038;42.612;23.066;2023-08-24T09:26:29;33.83;;;31.15;;
7985;SDS011;4038;42.612;23.066;2023-08-24T09:28:55;34.90;;;32.17;;
7985;SDS011;4038;42.612;23.066;2023-08-24T09:31:20;33.55;;;30.98;;
7985;SDS011;4038;42.612;23.066;2023-08-24T09:33:47;34.13;;;31.25;;
7985;SDS011;4038;42.612;23.066;2023-08-24T09:36:16;32.47;;;29.92;;
7985;SDS011;4038;42.612;23.066;2023-08-24T09:38:48;32.22;;;29.88;;
7985;SDS011;4038;42.612;23.066;2023-08-24T09:41:17;32.20;;;29.45;;
7985;SDS011;4038;42.612;23.066;2023-08-24T09:43:43;31.85;;;29.10;;
7985;SDS011;4038;42.612;23.066;2023-08-24T09:46:11;31.70;;;29.15;;
7985;SDS011;4038;42.612;23.066;2023-08-24T09:48:37;32.17;;;29.42;;
7985;SDS011;4038;42.612;23.066;2023-08-24T09:51:03;32.20;;;29.88;;
7985;SDS011;4038;42.612;23.066;2023-08-24T09:53:32;31.73;;;29.27;;
7985;SDS011;4038;42.612;23.066;2023-08-24T09:56:03;31.23;;;28.92;;
7985;SDS011;4038;42.612;23.066;2023-08-24T09:58:32;31.65;;;29.27;;
7985;SDS011;4038;42.612;23.066;2023-08-24T10:00:58;32.10;;;29.77;;
7985;SDS011;4038;42.612;23.066;2023-08-24T10:03:26;31.52;;;29.42;;
7985;SDS011;4038;42.612;23.066;2023-08-24T10:05:55;33.03;;;30.60;;
7985;SDS011;4038;42.612;23.066;2023-08-24T10:08:33;32.17;;;29.88;;
7985;SDS011;4038;42.612;23.066;2023-08-24T10:11:01;31.63;;;29.25;;
7985;SDS011;4038;42.612;23.066;2023-08-24T10:13:39;31.65;;;29.35;;
7985;SDS011;4038;42.612;23.066;2023-08-24T10:16:08;32.40;;;30.05;;
7985;SDS011;4038;42.612;23.066;2023-08-24T10:18:38;31.80;;;29.60;;
7985;SDS011;4038;42.612;23.066;2023-08-24T10:21:06;32.08;;;29.52;;
7985;SDS011;4038;42.612;23.066;2023-08-24T10:23:34;32.55;;;30.02;;
7985;SDS011;4038;42.612;23.066;2023-08-24T10:26:02;33.60;;;30.95;;
7985;SDS011;4038;42.612;23.066;2023-08-24T10:28:29;33.05;;;30.42;;
7985;SDS011;4038;42.612;23.066;2023-08-24T10:30:55;32.17;;;29.70;;
7985;SDS011;4038;42.612;23.066;2023-08-24T10:33:24;34.10;;;31.50;;
7985;SDS011;4038;42.612;23.066;2023-08-24T10:35:51;32.80;;;30.27;;
7985;SDS011;4038;42.612;23.066;2023-08-24T10:38:23;32.15;;;29.77;;
7985;SDS011;4038;42.612;23.066;2023-08-24T10:40:50;31.40;;;28.92;;
7985;SDS011;4038;42.612;23.066;2023-08-24T10:43:16;31.95;;;29.60;;
7985;SDS011;4038;42.612;23.066;2023-08-24T10:51:23;31.40;;;28.98;;
7985;SDS011;4038;42.612;23.066;2023-08-24T10:53:53;33.25;;;30.80;;
7985;SDS011;4038;42.612;23.066;2023-08-24T10:56:20;30.92;;;28.67;;
7985;SDS011;4038;42.612;23.066;2023-08-24T10:58:47;30.52;;;28.40;;
7985;SDS011;4038;42.612;23.066;2023-08-24T11:01:33;31.38;;;29.00;;
7985;SDS011;4038;42.612;23.066;2023-08-24T11:03:59;30.90;;;28.33;;
7985;SDS011;4038;42.612;23.066;2023-08-24T11:06:25;31.13;;;28.83;;
7985;SDS011;4038;42.612;23.066;2023-08-24T11:09:06;31.23;;;29.02;;
7985;SDS011;4038;42.612;23.066;2023-08-24T11:11:38;30.45;;;28.10;;
7985;SDS011;4038;42.612;23.066;2023-08-24T11:19:11;33.63;;;30.17;;
7985;SDS011;4038;42.612;23.066;2023-08-24T11:21:40;32.85;;;29.67;;
7985;SDS011;4038;42.612;23.066;2023-08-24T11:24:07;32.08;;;29.30;;
7985;SDS011;4038;42.612;23.066;2023-08-24T11:26:34;31.13;;;28.67;;
7985;SDS011;4038;42.612;23.066;2023-08-24T11:29:04;31.67;;;29.17;;
7985;SDS011;4038;42.612;23.066;2023-08-24T11:31:30;37.33;;;30.38;;
7985;SDS011;4038;42.612;23.066;2023-08-24T11:33:55;31.67;;;29.15;;
7985;SDS011;4038;42.612;23.066;2023-08-24T11:36:21;31.35;;;28.80;;
7985;SDS011;4038;42.612;23.066;2023-08-24T11:38:48;32.85;;;30.00;;
7985;SDS011;4038;42.612;23.066;2023-08-24T11:41:15;31.55;;;29.20;;
7985;SDS011;4038;42.612;23.066;2023-08-24T11:43:43;31.23;;;28.83;;
7985;SDS011;4038;42.612;23.066;2023-08-24T11:46:09;30.38;;;28.05;;
7985;SDS011;4038;42.612;23.066;2023-08-24T11:48:35;32.92;;;30.17;;
7985;SDS011;4038;42.612;23.066;2023-08-24T11:51:02;31.52;;;29.30;;
7985;SDS011;4038;42.612;23.066;2023-08-24T11:53:28;32.13;;;29.10;;
7985;SDS011;4038;42.612;23.066;2023-08-24T11:55:56;31.48;;;28.98;;
7985;SDS011;4038;42.612;23.066;2023-08-24T11:58:22;32.40;;;29.90;;
7985;SDS011;4038;42.612;23.066;2023-08-24T12:00:48;31.27;;;28.98;;
7985;SDS011;4038;42.612;23.066;2023-08-24T12:03:14;31.63;;;29.15;;
7985;SDS011;4038;42.612;23.066;2023-08-24T12:05:39;31.00;;;28.67;;
7985;SDS011;4038;42.612;23.066;2023-08-24T12:08:05;30.60;;;28.20;;
7985;SDS011;4038;42.612;23.066;2023-08-24T12:10:31;30.90;;;28.60;;
7985;SDS011;4038;42.612;23.066;2023-08-24T12:13:05;31.50;;;29.15;;
7985;SDS011;4038;42.612;23.066;2023-08-24T12:15:35;31.33;;;28.90;;
7985;SDS011;4038;42.612;23.066;2023-08-24T12:18:13;31.90;;;29.48;;
7985;SDS011;4038;42.612;23.066;2023-08-24T12:20:40;32.40;;;30.05;;
7985;SDS011;4038;42.612;23.066;2023-08-24T12:23:06;32.78;;;30.20;;
7985;SDS011;4038;42.612;23.066;2023-08-24T12:25:35;31.98;;;29.60;;
7985;SDS011;4038;42.612;23.066;2023-08-24T12:28:09;33.20;;;30.50;;
7985;SDS011;4038;42.612;23.066;2023-08-24T12:33:23;31.83;;;29.50;;
7985;SDS011;4038;42.612;23.066;2023-08-24T12:35:50;32.05;;;29.52;;
7985;SDS011;4038;42.612;23.066;2023-08-24T12:38:16;31.52;;;28.90;;
7985;SDS011;4038;42.612;23.066;2023-08-24T12:40:41;32.28;;;29.73;;
7985;SDS011;4038;42.612;23.066;2023-08-24T12:43:06;32.25;;;29.95;;
7985;SDS011;4038;42.612;23.066;2023-08-24T12:45:32;30.75;;;28.55;;
7985;SDS011;4038;42.612;23.066;2023-08-24T12:47:57;30.75;;;28.55;;
7985;SDS011;4038;42.612;23.066;2023-08-24T12:50:22;31.20;;;29.10;;
7985;SDS011;4038;42.612;23.066;2023-08-24T12:52:48;30.60;;;28.35;;
7985;SDS011;4038;42.612;23.066;2023-08-24T12:55:14;30.08;;;27.67;;
7985;SDS011;4038;42.612;23.066;2023-08-24T12:57:39;30.13;;;28.02;;
7985;SDS011;4038;42.612;23.066;2023-08-24T13:00:05;31.40;;;28.98;;
7985;SDS011;4038;42.612;23.066;2023-08-24T13:02:33;31.83;;;29.58;;
7985;SDS011;4038;42.612;23.066;2023-08-24T13:04:58;30.85;;;28.65;;
7985;SDS011;4038;42.612;23.066;2023-08-24T13:07:26;30.20;;;28.10;;
7985;SDS011;4038;42.612;23.066;2023-08-24T13:09:51;30.70;;;28.60;;
7985;SDS011;4038;42.612;23.066;2023-08-24T13:12:17;30.70;;;28.40;;
7985;SDS011;4038;42.612;23.066;2023-08-24T13:14:42;30.23;;;27.92;;
7985;SDS011;4038;42.612;23.066;2023-08-24T13:17:07;30.20;;;27.85;;
7985;SDS011;4038;42.612;23.066;2023-08-24T13:19:33;31.20;;;29.00;;
7985;SDS011;4038;42.612;23.066;2023-08-24T13:21:58;32.75;;;29.88;;
7985;SDS011;4038;42.612;23.066;2023-08-24T13:24:24;32.95;;;30.00;;
7985;SDS011;4038;42.612;23.066;2023-08-24T13:26:49;32.42;;;30.00;;
7985;SDS011;4038;42.612;23.066;2023-08-24T13:29:15;29.23;;;27.13;;
7985;SDS011;4038;42.612;23.066;2023-08-24T13:31:40;31.38;;;28.38;;
7985;SDS011;4038;42.612;23.066;2023-08-24T13:34:06;30.65;;;28.20;;
7985;SDS011;4038;42.612;23.066;2023-08-24T13:36:32;30.88;;;28.45;;
7985;SDS011;4038;42.612;23.066;2023-08-24T13:38:58;29.85;;;27.65;;
7985;SDS011;4038;42.612;23.066;2023-08-24T13:41:24;29.73;;;27.52;;
7985;SDS011;4038;42.612;23.066;2023-08-24T13:43:49;29.83;;;27.52;;
7985;SDS011;4038;42.612;23.066;2023-08-24T13:46:14;40.75;;;37.00;;
7985;SDS011;4038;42.612;23.066;2023-08-24T13:48:40;46.55;;;42.05;;
7985;SDS011;4038;42.612;23.066;2023-08-24T13:51:05;48.97;;;41.15;;
7985;SDS011;4038;42.612;23.066;2023-08-24T13:53:31;39.67;;;36.47;;
7985;SDS011;4038;42.612;23.066;2023-08-24T13:55:56;38.75;;;35.75;;
7985;SDS011;4038;42.612;23.066;2023-08-24T13:58:22;42.03;;;38.63;;
7985;SDS011;4038;42.612;23.066;2023-08-24T14:00:47;43.88;;;40.47;;
7985;SDS011;4038;42.612;23.066;2023-08-24T14:03:19;41.72;;;38.60;;
7985;SDS011;4038;42.612;23.066;2023-08-24T14:05:45;36.97;;;34.33;;
7985;SDS011;4038;42.612;23.066;2023-08-24T14:08:12;37.80;;;34.80;;
7985;SDS011;4038;42.612;23.066;2023-08-24T14:10:38;37.75;;;35.15;;
7985;SDS011;4038;42.612;23.066;2023-08-24T14:13:04;35.15;;;32.65;;
7985;SDS011;4038;42.612;23.066;2023-08-24T14:15:29;36.78;;;34.13;;
7985;SDS011;4038;42.612;23.066;2023-08-24T14:17:54;35.40;;;32.60;;
7985;SDS011;4038;42.612;23.066;2023-08-24T14:20:20;33.92;;;31.63;;
7985;SDS011;4038;42.612;23.066;2023-08-24T14:22:45;32.40;;;30.10;;
7985;SDS011;4038;42.612;23.066;2023-08-24T14:25:13;34.40;;;31.90;;
7985;SDS011;4038;42.612;23.066;2023-08-24T14:27:39;34.30;;;31.77;;
7985;SDS011;4038;42.612;23.066;2023-08-24T14:30:06;36.42;;;33.95;;
7985;SDS011;4038;42.612;23.066;2023-08-24T14:32:33;36.08;;;33.50;;
7985;SDS011;4038;42.612;23.066;2023-08-24T14:34:58;35.88;;;33.30;;
7985;SDS011;4038;42.612;23.066;2023-08-24T14:37:24;35.30;;;32.72;;
7985;SDS011;4038;42.612;23.066;2023-08-24T14:39:49;35.60;;;33.00;;
7985;SDS011;4038;42.612;23.066;2023-08-24T14:42:15;35.20;;;32.35;;
7985;SDS011;4038;42.612;23.066;2023-08-24T14:44:40;33.60;;;31.20;;
7985;SDS011;4038;42.612;23.066;2023-08-24T14:47:06;33.28;;;30.67;;
7985;SDS011;4038;42.612;23.066;2023-08-24T14:49:31;33.22;;;30.67;;